createdAt,value
2023-02-12T00:00:23.064Z,39.80
2023-02-12T00:02:51.309Z,41.97
2023-02-12T00:05:19.451Z,41.85
2023-02-12T00:07:47.437Z,41.83
2023-02-12T00:10:15.416Z,44.08
2023-02-12T00:12:43.522Z,41.92
2023-02-12T00:15:11.597Z,42.72
2023-02-12T00:17:40.940Z,42.40
2023-02-12T00:20:09.992Z,53.90
2023-02-12T00:22:38.408Z,50.80
2023-02-12T00:25:06.807Z,46.70
2023-02-12T00:27:35.729Z,49.08
2023-02-12T00:30:03.977Z,45.83
2023-02-12T00:32:31.993Z,43.40
2023-02-12T00:35:01.326Z,45.80
2023-02-12T00:37:29.675Z,43.30
2023-02-12T00:39:57.660Z,46.97
2023-02-12T00:42:26.193Z,46.00
2023-02-12T00:44:54.199Z,56.83
2023-02-12T00:47:22.216Z,46.90
2023-02-12T00:49:51.728Z,47.47
2023-02-12T00:52:21.108Z,55.53
2023-02-12T00:54:49.133Z,40.50
2023-02-12T00:57:17.631Z,39.47
2023-02-12T00:59:45.663Z,39.42
2023-02-12T01:02:13.666Z,36.10
2023-02-12T01:04:41.724Z,37.55
2023-02-12T01:07:10.074Z,38.75
2023-02-12T01:09:39.721Z,43.72
2023-02-12T01:12:08.277Z,38.53
2023-02-12T01:14:36.286Z,38.33
2023-02-12T01:17:05.055Z,33.78
2023-02-12T01:19:33.394Z,38.50
2023-02-12T01:22:01.426Z,36.50
2023-02-12T01:24:29.467Z,36.30
2023-02-12T01:27:01.104Z,32.33
2023-02-12T01:29:29.838Z,36.25
2023-02-12T01:31:58.010Z,36.15
2023-02-12T01:34:26.169Z,32.58
2023-02-12T01:36:54.156Z,35.20
2023-02-12T01:39:22.693Z,33.20
2023-02-12T01:41:50.652Z,33.55
2023-02-12T01:44:22.276Z,31.73
2023-02-12T01:46:55.660Z,33.63
2023-02-12T01:49:27.395Z,30.75
2023-02-12T01:52:00.208Z,33.15
2023-02-12T01:54:30.030Z,33.58
2023-02-12T01:56:58.252Z,29.13
2023-02-12T01:59:28.034Z,30.98
2023-02-12T02:01:56.362Z,30.73
2023-02-12T02:04:29.035Z,27.15
2023-02-12T02:06:59.292Z,30.77
2023-02-12T02:09:29.390Z,32.60
2023-02-12T02:12:14.912Z,31.15
2023-02-12T02:14:45.710Z,34.25
2023-02-12T02:17:33.757Z,36.95
2023-02-12T02:20:57.482Z,34.80
2023-02-12T02:23:48.673Z,31.17
2023-02-12T02:26:47.460Z,31.95
2023-02-12T02:29:29.978Z,32.05
2023-02-12T02:32:04.200Z,31.30
2023-02-12T02:34:41.583Z,32.83
2023-02-12T02:37:15.165Z,30.17
2023-02-12T02:39:49.083Z,30.25
2023-02-12T02:42:22.677Z,29.45
2023-02-12T02:44:54.979Z,29.30
2023-02-12T02:47:31.345Z,35.78
2023-02-12T02:50:04.640Z,44.15
2023-02-12T02:52:37.444Z,35.85
2023-02-12T02:55:32.043Z,30.15
2023-02-12T02:58:02.972Z,34.03
2023-02-12T03:00:36.842Z,31.75
2023-02-12T03:03:11.231Z,29.77
2023-02-12T03:05:44.023Z,29.40
2023-02-12T03:08:14.782Z,31.88
2023-02-12T03:10:46.946Z,30.85
2023-02-12T03:13:21.501Z,31.67
2023-02-12T03:15:56.264Z,30.52
2023-02-12T03:18:30.003Z,31.83
2023-02-12T03:21:01.973Z,31.08
2023-02-12T03:23:35.138Z,30.70
2023-02-12T03:26:08.851Z,33.35
2023-02-12T03:28:39.241Z,30.75
2023-02-12T03:31:14.405Z,30.33
2023-02-12T03:33:55.052Z,31.30
2023-02-12T03:36:37.665Z,30.10
2023-02-12T03:39:13.039Z,38.22
2023-02-12T03:41:46.601Z,38.60
2023-02-12T03:44:24.096Z,37.20
2023-02-12T03:47:00.258Z,35.20
2023-02-12T03:49:33.471Z,35.97
2023-02-12T03:52:01.573Z,34.90
2023-02-12T03:54:29.711Z,35.88
2023-02-12T03:57:02.684Z,35.80
2023-02-12T03:59:30.966Z,34.50
2023-02-12T04:02:00.612Z,33.00
2023-02-12T04:04:30.872Z,30.42
2023-02-12T04:06:59.604Z,30.08
2023-02-12T04:09:29.202Z,28.77
2023-02-12T04:12:10.425Z,29.77
2023-02-12T04:14:47.216Z,30.92
2023-02-12T04:17:23.144Z,35.97
2023-02-12T04:20:03.652Z,30.02
2023-02-12T04:22:44.892Z,29.83
2023-02-12T04:25:22.494Z,28.95
2023-02-12T04:27:58.510Z,28.20
2023-02-12T04:30:32.767Z,31.63
2023-02-12T04:33:03.587Z,29.77
2023-02-12T04:35:36.954Z,26.38
2023-02-12T04:38:11.162Z,32.35
2023-02-12T04:40:41.758Z,30.88
2023-02-12T04:43:10.248Z,31.15
2023-02-12T04:45:39.189Z,28.58
2023-02-12T04:48:07.546Z,27.67
2023-02-12T04:50:41.344Z,26.98
2023-02-12T04:53:10.759Z,26.50
2023-02-12T04:55:39.029Z,25.27
2023-02-12T04:58:07.314Z,27.40
2023-02-12T05:00:35.561Z,25.63
2023-02-12T05:03:03.803Z,25.90
2023-02-12T05:05:31.918Z,25.55
2023-02-12T05:08:01.875Z,25.88
2023-02-12T05:10:30.125Z,27.38
2023-02-12T05:12:58.129Z,29.83
2023-02-12T05:15:26.107Z,29.55
2023-02-12T05:17:54.137Z,27.17
2023-02-12T05:20:22.188Z,25.55
2023-02-12T05:22:53.501Z,25.75
2023-02-12T05:25:23.057Z,23.55
2023-02-12T05:27:51.100Z,28.20
2023-02-12T05:30:19.349Z,27.73
2023-02-12T05:32:47.351Z,24.42
2023-02-12T05:35:15.509Z,25.73
2023-02-12T05:37:43.557Z,26.02
2023-02-12T05:40:12.552Z,29.05
2023-02-12T05:42:42.009Z,24.73
2023-02-12T05:45:10.551Z,27.50
2023-02-12T05:47:39.002Z,26.48
2023-02-12T05:50:08.496Z,27.25
2023-02-12T05:52:36.515Z,25.23
2023-02-12T05:55:04.969Z,26.33
2023-02-12T05:57:33.108Z,23.17
2023-02-12T06:00:02.877Z,23.80
2023-02-12T06:02:40.957Z,25.75
2023-02-12T06:05:09.326Z,25.45
2023-02-12T06:07:37.362Z,28.75
2023-02-12T06:10:06.098Z,26.58
2023-02-12T06:12:34.429Z,24.88
2023-02-12T06:15:04.189Z,29.95
2023-02-12T06:17:33.028Z,24.92
2023-02-12T06:20:01.175Z,24.65
2023-02-12T06:22:29.446Z,28.75
2023-02-12T06:24:57.465Z,27.73
2023-02-12T06:27:25.474Z,28.80
2023-02-12T06:29:53.455Z,28.67
2023-02-12T06:32:23.436Z,24.33
2023-02-12T06:34:51.472Z,25.38
2023-02-12T06:37:19.459Z,26.90
2023-02-12T06:39:47.706Z,28.55
2023-02-12T06:42:15.735Z,23.92
2023-02-12T06:44:43.726Z,27.45
2023-02-12T06:47:11.712Z,27.25
2023-02-12T06:49:41.079Z,26.88
2023-02-12T06:52:09.111Z,24.92
2023-02-12T06:54:37.153Z,27.75
2023-02-12T06:57:05.400Z,24.02
2023-02-12T06:59:33.920Z,25.88
2023-02-12T07:02:01.914Z,25.52
2023-02-12T07:04:30.035Z,23.17
2023-02-12T07:06:59.429Z,23.25
2023-02-12T07:09:27.616Z,22.20
2023-02-12T07:11:56.799Z,25.10
2023-02-12T07:14:24.862Z,25.35
2023-02-12T07:16:53.817Z,25.98
2023-02-12T07:19:23.560Z,24.48
2023-02-12T07:21:51.687Z,24.67
2023-02-12T07:24:21.071Z,29.48
2023-02-12T07:26:49.246Z,27.48
2023-02-12T07:29:17.383Z,27.98
2023-02-12T07:31:45.406Z,28.00
2023-02-12T07:34:13.569Z,26.67
2023-02-12T07:36:42.116Z,28.30
2023-02-12T07:39:13.126Z,27.85
2023-02-12T07:41:42.520Z,28.73
2023-02-12T07:44:13.107Z,32.33
2023-02-12T07:46:45.577Z,31.98
2023-02-12T07:49:17.568Z,30.50
2023-02-12T07:51:46.031Z,33.05
2023-02-12T07:54:14.459Z,32.65
2023-02-12T07:56:46.778Z,33.25
2023-02-12T07:59:17.973Z,33.47
2023-02-12T08:01:48.353Z,39.85
2023-02-12T08:04:19.075Z,39.97
2023-02-12T08:06:49.402Z,48.35
2023-02-12T08:09:20.497Z,36.83
2023-02-12T08:11:50.047Z,41.45
2023-02-12T08:14:20.398Z,37.20
2023-02-12T08:16:49.879Z,42.58
2023-02-12T08:19:22.518Z,40.55
2023-02-12T08:21:53.651Z,40.42
2023-02-12T08:24:22.823Z,53.42
2023-02-12T08:26:52.573Z,43.45
2023-02-12T08:29:22.411Z,35.50
2023-02-12T08:31:51.595Z,44.03
2023-02-12T08:34:21.264Z,35.42
2023-02-12T08:36:50.702Z,34.78
2023-02-12T08:39:19.823Z,35.80
2023-02-12T08:41:48.724Z,33.78
2023-02-12T08:44:19.549Z,39.00
2023-02-12T08:46:50.118Z,39.40
2023-02-12T08:49:20.214Z,59.53
2023-02-12T08:51:49.833Z,52.75
2023-02-12T08:54:19.106Z,43.67
2023-02-12T08:56:47.523Z,45.40
2023-02-12T08:59:17.766Z,38.60
2023-02-12T09:01:45.988Z,37.63
2023-02-12T09:04:17.717Z,35.97
2023-02-12T09:06:47.111Z,36.00
2023-02-12T09:09:15.534Z,33.65
2023-02-12T09:11:44.666Z,33.58
2023-02-12T09:14:14.680Z,32.95
2023-02-12T09:16:44.436Z,33.53
2023-02-12T09:19:15.028Z,35.10
2023-02-12T09:21:44.452Z,31.35
2023-02-12T09:24:12.430Z,29.85
2023-02-12T09:26:41.130Z,28.85
2023-02-12T09:29:31.762Z,24.95
2023-02-12T09:32:02.603Z,24.45
2023-02-12T09:34:30.646Z,24.65
2023-02-12T09:36:58.665Z,23.52
2023-02-12T09:39:28.788Z,21.73
2023-02-12T09:42:20.394Z,20.33
2023-02-12T09:44:58.018Z,20.63
2023-02-12T09:47:34.925Z,18.63
2023-02-12T09:50:14.937Z,13.63
2023-02-12T09:52:43.213Z,11.00
2023-02-12T09:55:15.500Z,13.73
2023-02-12T09:57:44.411Z,12.93
2023-02-12T10:00:17.440Z,23.02
2023-02-12T10:02:47.570Z,15.55
2023-02-12T10:05:19.663Z,15.98
2023-02-12T10:08:07.268Z,15.38
2023-02-12T10:10:48.227Z,15.48
2023-02-12T10:13:27.453Z,14.52
2023-02-12T10:16:03.593Z,14.75
2023-02-12T10:18:55.676Z,16.30
2023-02-12T10:21:38.408Z,16.52
2023-02-12T10:24:18.008Z,16.17
2023-02-12T10:26:49.507Z,19.02
2023-02-12T10:29:21.126Z,18.77
2023-02-12T10:31:54.059Z,19.83
2023-02-12T10:34:26.637Z,18.58
2023-02-12T10:36:59.996Z,18.20
2023-02-12T10:39:33.097Z,19.17
2023-02-12T10:42:05.284Z,17.33
2023-02-12T10:44:33.402Z,18.10
2023-02-12T10:47:02.101Z,17.48
2023-02-12T10:49:32.497Z,16.05
2023-02-12T10:52:09.398Z,16.02
2023-02-12T10:54:43.083Z,14.93
2023-02-12T10:57:21.980Z,14.32
2023-02-12T10:59:53.032Z,13.13
2023-02-12T11:02:31.553Z,13.68
2023-02-12T11:05:16.673Z,13.40
2023-02-12T11:07:50.261Z,14.13
2023-02-12T11:10:22.229Z,14.52
2023-02-12T11:12:50.491Z,13.05
2023-02-12T11:15:20.631Z,12.57
2023-02-12T11:17:58.714Z,15.40
2023-02-12T11:20:29.979Z,14.50
2023-02-12T11:23:00.773Z,14.27
2023-02-12T11:25:31.371Z,16.77
2023-02-12T11:28:07.455Z,13.88
2023-02-12T11:30:36.588Z,15.15
2023-02-12T11:33:18.736Z,14.68
2023-02-12T11:35:53.502Z,13.55
2023-02-12T11:38:28.362Z,15.20
2023-02-12T11:40:59.989Z,13.40
2023-02-12T11:43:31.065Z,14.30
2023-02-12T11:46:01.268Z,12.43
2023-02-12T11:48:34.625Z,11.07
2023-02-12T11:51:06.515Z,10.52
2023-02-12T11:53:37.829Z,11.75
2023-02-12T11:56:08.993Z,10.98
2023-02-12T11:58:37.365Z,10.73
2023-02-12T12:01:13.490Z,10.15
2023-02-12T12:03:50.427Z,11.25
2023-02-12T12:06:30.623Z,9.90
2023-02-12T12:09:04.875Z,10.93
2023-02-12T12:11:45.079Z,12.45
2023-02-12T12:14:19.107Z,11.77
2023-02-12T12:17:10.402Z,11.02
2023-02-12T12:19:54.642Z,13.25
2023-02-12T12:22:47.875Z,10.32
2023-02-12T12:25:25.764Z,7.30
2023-02-12T12:28:05.674Z,7.30
2023-02-12T12:30:55.653Z,9.73
2023-02-12T12:33:33.768Z,9.73
2023-02-12T12:36:30.707Z,8.40
2023-02-12T12:39:08.392Z,6.55
2023-02-12T12:41:43.358Z,7.70
2023-02-12T12:44:28.464Z,9.40
2023-02-12T12:47:11.652Z,9.40
2023-02-12T12:49:49.579Z,7.93
2023-02-12T12:52:40.432Z,7.65
2023-02-12T12:55:33.993Z,8.32
2023-02-12T12:58:13.370Z,6.32
2023-02-12T13:01:07.139Z,7.10
2023-02-12T13:04:14.398Z,8.70
2023-02-12T13:07:10.182Z,8.00
2023-02-12T13:09:48.015Z,8.30
2023-02-12T13:12:49.956Z,8.32
2023-02-12T13:15:27.643Z,8.48
2023-02-12T13:18:00.393Z,8.32
2023-02-12T13:20:37.190Z,7.20
2023-02-12T13:23:11.780Z,6.47
2023-02-12T13:25:46.870Z,6.10
2023-02-12T13:28:22.337Z,6.38
2023-02-12T13:30:53.269Z,6.78
2023-02-12T13:33:24.264Z,7.30
2023-02-12T13:35:56.142Z,7.25
2023-02-12T13:38:29.894Z,7.65
2023-02-12T13:41:02.943Z,7.50
2023-02-12T13:43:50.038Z,7.82
2023-02-12T13:46:26.892Z,8.65
2023-02-12T13:49:04.661Z,6.18
2023-02-12T13:51:41.853Z,6.63
2023-02-12T13:54:48.163Z,7.60
2023-02-12T13:57:19.653Z,7.00
2023-02-12T13:59:53.591Z,7.03
2023-02-12T14:02:29.322Z,7.05
2023-02-12T14:04:59.867Z,7.65
2023-02-12T14:07:44.076Z,7.18
2023-02-12T14:10:26.179Z,7.22
2023-02-12T14:12:56.083Z,6.93
2023-02-12T14:15:33.336Z,5.93
2023-02-12T14:18:24.377Z,5.75
2023-02-12T14:21:40.407Z,4.68
2023-02-12T14:24:51.687Z,4.97
2023-02-12T14:27:42.618Z,5.43
2023-02-12T14:30:29.753Z,4.70
2023-02-12T14:33:00.927Z,4.38
2023-02-12T14:35:36.247Z,3.92
2023-02-12T14:38:25.274Z,4.70
2023-02-12T14:41:34.178Z,4.20
2023-02-12T14:44:41.910Z,3.50
2023-02-12T14:47:29.000Z,3.78
2023-02-12T14:50:01.511Z,4.10
2023-02-12T14:52:33.242Z,4.10
2023-02-12T14:55:04.264Z,4.43
2023-02-12T14:57:36.043Z,4.90
2023-02-12T15:00:21.165Z,5.20
2023-02-12T15:02:54.383Z,5.00
2023-02-12T15:05:26.275Z,4.55
2023-02-12T15:07:58.596Z,3.03
2023-02-12T15:10:32.939Z,3.25
2023-02-12T15:13:19.157Z,2.25
2023-02-12T15:15:52.116Z,2.95
2023-02-12T15:18:26.462Z,2.80
2023-02-12T15:21:01.093Z,2.42
2023-02-12T15:23:35.331Z,2.80
2023-02-12T15:26:05.105Z,3.00
2023-02-12T15:28:37.523Z,3.20
2023-02-12T15:31:10.378Z,3.20
2023-02-12T15:33:42.794Z,3.53
2023-02-12T15:36:16.811Z,3.53
2023-02-12T15:38:45.719Z,2.58
2023-02-12T15:41:27.533Z,3.25
2023-02-12T15:43:57.486Z,2.60
2023-02-12T15:46:25.838Z,2.80
2023-02-12T15:48:55.404Z,2.92
2023-02-12T15:51:29.851Z,2.72
2023-02-12T15:54:01.393Z,2.10
2023-02-12T15:56:30.215Z,2.50
2023-02-12T15:59:01.544Z,2.40
2023-02-12T16:01:32.232Z,2.58
2023-02-12T16:04:02.699Z,3.05
2023-02-12T16:06:35.166Z,2.65
2023-02-12T16:09:05.832Z,2.42
2023-02-12T16:11:35.334Z,2.65
2023-02-12T16:14:08.638Z,2.28
2023-02-12T16:16:44.942Z,2.60
2023-02-12T16:19:20.330Z,2.65
2023-02-12T16:21:51.624Z,2.88
2023-02-12T16:24:27.450Z,2.58
2023-02-12T16:26:56.636Z,2.85
2023-02-12T16:29:26.178Z,2.70
2023-02-12T16:31:57.499Z,2.90
2023-02-12T16:34:30.493Z,2.80
2023-02-12T16:36:58.951Z,2.45
2023-02-12T16:40:21.362Z,3.35
2023-02-12T16:43:01.787Z,2.97
2023-02-12T16:45:43.743Z,2.70
2023-02-12T16:48:25.029Z,2.75
2023-02-12T16:50:56.142Z,2.88
2023-02-12T16:53:43.424Z,2.20
2023-02-12T16:56:20.932Z,2.55
2023-02-12T16:58:51.075Z,2.75
2023-02-12T17:01:23.648Z,2.42
2023-02-12T17:03:52.324Z,3.35
2023-02-12T17:06:22.171Z,3.50
2023-02-12T17:08:50.376Z,2.97
2023-02-12T17:11:19.009Z,3.47
2023-02-12T17:13:49.177Z,6.25
2023-02-12T17:16:29.968Z,4.38
2023-02-12T17:19:00.729Z,4.32
2023-02-12T17:21:30.624Z,4.18
2023-02-12T17:23:58.826Z,4.18
2023-02-12T17:26:28.740Z,5.50
2023-02-12T17:29:05.032Z,4.63
2023-02-12T17:31:33.349Z,3.90
2023-02-12T17:34:03.185Z,4.97
2023-02-12T17:36:31.597Z,4.47
2023-02-12T17:39:00.061Z,4.30
2023-02-12T17:41:28.283Z,5.90
2023-02-12T17:43:56.314Z,5.88
2023-02-12T17:46:26.623Z,4.63
2023-02-12T17:48:54.732Z,5.35
2023-02-12T17:51:24.735Z,5.15
2023-02-12T17:53:52.984Z,4.53
2023-02-12T17:56:25.476Z,5.15
2023-02-12T17:58:54.420Z,6.45
2023-02-12T18:01:24.217Z,6.15
2023-02-12T18:03:54.595Z,5.78
2023-02-12T18:06:27.036Z,6.20
2023-02-12T18:08:55.537Z,5.97
2023-02-12T18:11:23.623Z,6.20
2023-02-12T18:13:54.299Z,6.45
2023-02-12T18:16:23.528Z,5.90
2023-02-12T18:18:51.585Z,5.10
2023-02-12T18:21:20.001Z,5.57
2023-02-12T18:23:49.570Z,6.35
2023-02-12T18:26:19.432Z,6.53
2023-02-12T18:28:47.523Z,6.50
2023-02-12T18:31:15.880Z,9.32
2023-02-12T18:33:44.044Z,8.48
2023-02-12T18:36:15.237Z,11.15
2023-02-12T18:38:44.726Z,10.90
2023-02-12T18:41:15.594Z,7.40
2023-02-12T18:43:45.112Z,8.00
2023-02-12T18:46:14.797Z,7.93
2023-02-12T18:48:43.491Z,10.65
2023-02-12T18:51:14.815Z,10.00
2023-02-12T18:53:42.933Z,10.50
2023-02-12T18:56:12.438Z,9.60
2023-02-12T18:58:42.080Z,11.05
2023-02-12T19:01:14.564Z,11.73
2023-02-12T19:03:42.833Z,11.30
2023-02-12T19:06:11.360Z,10.98
2023-02-12T19:08:39.490Z,11.85
2023-02-12T19:11:08.369Z,13.75
2023-02-12T19:13:36.699Z,12.13
2023-02-12T19:16:10.196Z,13.43
2023-02-12T19:18:38.298Z,13.13
2023-02-12T19:21:07.621Z,13.85
2023-02-12T19:23:35.879Z,10.18
2023-02-12T19:26:05.323Z,10.93
2023-02-12T19:28:34.349Z,10.85
2023-02-12T19:31:14.173Z,10.75
2023-02-12T19:33:44.426Z,9.20
2023-02-12T19:36:14.966Z,9.75
2023-02-12T19:38:43.038Z,8.88
2023-02-12T19:41:14.063Z,9.55
2023-02-12T19:43:42.680Z,7.30
2023-02-12T19:46:16.011Z,7.75
2023-02-12T19:48:45.122Z,7.53
2023-02-12T19:51:15.232Z,7.57
2023-02-12T19:53:43.433Z,8.35
2023-02-12T19:56:11.701Z,7.43
2023-02-12T19:58:40.128Z,8.27
2023-02-12T20:01:11.585Z,7.60
2023-02-12T20:03:40.077Z,8.27
2023-02-12T20:06:10.653Z,8.95
2023-02-12T20:08:39.778Z,7.78
2023-02-12T20:11:08.190Z,9.10
2023-02-12T20:13:36.710Z,10.52
2023-02-12T20:16:05.416Z,8.40
2023-02-12T20:18:35.041Z,8.48
2023-02-12T20:21:08.314Z,7.82
2023-02-12T20:23:36.428Z,9.35
2023-02-12T20:26:05.808Z,7.35
2023-02-12T20:28:35.027Z,7.78
2023-02-12T20:31:09.458Z,6.93
2023-02-12T20:33:39.419Z,8.68
2023-02-12T20:36:08.883Z,7.78
2023-02-12T20:38:38.257Z,7.47
2023-02-12T20:41:08.086Z,8.60
2023-02-12T20:43:37.919Z,8.52
2023-02-12T20:46:07.580Z,7.82
2023-02-12T20:48:36.638Z,9.27
2023-02-12T20:51:07.990Z,9.70
2023-02-12T20:53:37.022Z,11.40
2023-02-12T20:56:07.690Z,10.43
2023-02-12T20:58:35.842Z,9.82
2023-02-12T21:01:05.599Z,10.48
2023-02-12T21:03:33.681Z,9.77
2023-02-12T21:06:02.424Z,8.70
2023-02-12T21:08:32.662Z,8.68
2023-02-12T21:11:01.793Z,6.80
2023-02-12T21:13:30.162Z,7.53
2023-02-12T21:16:05.661Z,6.93
2023-02-12T21:18:33.788Z,6.93
2023-02-12T21:21:03.127Z,6.72
2023-02-12T21:23:33.770Z,7.22
2023-02-12T21:26:03.726Z,6.25
2023-02-12T21:28:33.289Z,6.15
2023-02-12T21:31:07.959Z,5.93
2023-02-12T21:33:36.072Z,6.50
2023-02-12T21:36:06.353Z,6.38
2023-02-12T21:38:38.790Z,6.22
2023-02-12T21:41:08.758Z,6.70
2023-02-12T21:43:37.666Z,6.30
2023-02-12T21:46:06.615Z,5.32
2023-02-12T21:48:35.561Z,5.60
2023-02-12T21:51:03.965Z,5.40
2023-02-12T21:53:32.218Z,5.88
2023-02-12T21:56:04.971Z,5.22
2023-02-12T21:58:33.326Z,5.95
2023-02-12T22:01:07.454Z,5.63
2023-02-12T22:03:35.593Z,5.97
2023-02-12T22:06:05.131Z,6.38
2023-02-12T22:08:33.714Z,4.90
2023-02-12T22:11:04.756Z,4.80
2023-02-12T22:13:33.284Z,4.50
2023-02-12T22:16:09.596Z,4.70
2023-02-12T22:18:38.159Z,5.28
2023-02-12T22:21:08.769Z,5.88
2023-02-12T22:23:38.915Z,4.65
2023-02-12T22:26:10.765Z,4.43
2023-02-12T22:28:41.897Z,4.88
2023-02-12T22:31:11.050Z,5.20
2023-02-12T22:33:39.256Z,5.25
2023-02-12T22:36:09.906Z,5.28
2023-02-12T22:38:39.308Z,6.15
2023-02-12T22:41:10.013Z,5.88
2023-02-12T22:43:39.658Z,5.10
2023-02-12T22:46:08.333Z,4.80
2023-02-12T22:48:36.665Z,5.25
2023-02-12T22:51:10.099Z,5.00
2023-02-12T22:53:38.418Z,4.68
2023-02-12T22:56:09.556Z,5.55
2023-02-12T22:58:38.503Z,5.00
2023-02-12T23:01:07.629Z,3.70
2023-02-12T23:03:37.281Z,3.22
2023-02-12T23:06:07.533Z,3.05
2023-02-12T23:08:36.378Z,3.60
2023-02-12T23:11:07.087Z,3.50
2023-02-12T23:13:37.691Z,3.45
2023-02-12T23:16:06.665Z,3.65
2023-02-12T23:18:35.048Z,3.25
2023-02-12T23:21:03.854Z,3.80
2023-02-12T23:23:31.844Z,4.45
2023-02-12T23:25:59.932Z,4.18
2023-02-12T23:28:28.046Z,3.72
2023-02-12T23:30:58.005Z,3.90
2023-02-12T23:33:26.419Z,4.03
2023-02-12T23:35:54.447Z,4.47
2023-02-12T23:38:22.631Z,3.55
2023-02-12T23:40:50.711Z,3.83
2023-02-12T23:43:18.781Z,5.53
2023-02-12T23:45:47.251Z,4.28
2023-02-12T23:48:16.781Z,4.53
2023-02-12T23:50:49.429Z,5.10
2023-02-12T23:53:18.916Z,4.80
2023-02-12T23:55:47.219Z,5.35
2023-02-12T23:58:15.306Z,5.38
